Time;durP1;ratioP1;P1;durP2;ratioP2;P2;SDS_P1;SDS_P2;PMS_P1;PMS_P2;Temp;Humidity;BMP_temperature;BMP_pressure;BME280_temperature;BME280_humidity;BME280_pressure;Samples;Min_cycle;Max_cycle;Signal;HPM_P1;HPM_P2
2021/09/10 00:00:27;;;;;;;9.60;5.60;;;;;;;23.00;64.06;101071.50;5053825;28;20297;-65
2021/09/10 00:02:52;;;;;;;8.82;5.95;;;;;;;22.99;64.21;101065.34;5054676;28;20285;-65
2021/09/10 00:05:18;;;;;;;8.30;6.03;;;;;;;22.97;64.04;101058.50;5054780;28;20025;-66
2021/09/10 00:07:43;;;;;;;8.37;5.77;;;;;;;22.97;64.12;101059.38;5053930;28;20028;-65
2021/09/10 00:10:09;;;;;;;8.00;5.82;;;;;;;22.97;64.24;101059.38;5054042;28;20285;-66
2021/09/10 00:12:34;;;;;;;8.20;5.30;;;;;;;22.96;64.03;101060.34;5054301;28;20112;-66
2021/09/10 00:15:00;;;;;;;8.00;5.55;;;;;;;22.97;64.35;101066.47;5053344;28;20029;-66
2021/09/10 00:17:25;;;;;;;8.13;5.85;;;;;;;22.94;64.29;101058.81;5054582;28;20123;-65
2021/09/10 00:19:50;;;;;;;7.55;5.78;;;;;;;22.94;64.19;101061.47;5054279;28;20036;-65
2021/09/10 00:22:16;;;;;;;8.95;6.07;;;;;;;22.92;64.02;101053.69;5053793;28;20440;-65
2021/09/10 00:24:41;;;;;;;8.10;5.53;;;;;;;22.94;64.27;101054.34;5054398;28;20541;-64
2021/09/10 00:27:06;;;;;;;7.77;5.70;;;;;;;22.93;64.22;101055.34;5054019;28;20357;-66
2021/09/10 00:29:31;;;;;;;7.57;5.90;;;;;;;22.92;64.25;101053.69;5053455;28;20319;-65
2021/09/10 00:31:57;;;;;;;10.10;5.90;;;;;;;22.93;64.29;101052.69;5054037;28;20123;-66
2021/09/10 00:34:22;;;;;;;6.93;5.20;;;;;;;22.90;64.28;101052.16;5053936;28;20025;-66
2021/09/10 00:36:50;;;;;;;8.48;5.35;;;;;;;22.92;63.93;101061.66;5053131;28;20175;-66
2021/09/10 00:39:21;;;;;;;9.43;5.43;;;;;;;22.92;63.90;101064.31;5054074;28;20163;-65
2021/09/10 00:41:47;;;;;;;9.50;5.78;;;;;;;22.91;63.83;101061.81;5053675;28;20037;-65
2021/09/10 00:44:12;;;;;;;7.68;5.40;;;;;;;22.91;64.06;101064.47;5053631;28;20039;-66
2021/09/10 00:46:37;;;;;;;7.37;5.30;;;;;;;22.89;64.01;101056.63;5053942;28;20049;-65
2021/09/10 00:49:04;;;;;;;6.77;5.10;;;;;;;22.91;63.92;101064.47;5052753;28;20274;-66
2021/09/10 00:51:29;;;;;;;8.70;5.43;;;;;;;22.89;63.97;101047.81;5053851;28;20294;-65
2021/09/10 00:53:54;;;;;;;7.40;5.03;;;;;;;22.91;64.03;101061.81;5053610;28;20021;-66
2021/09/10 00:56:20;;;;;;;7.03;4.90;;;;;;;22.89;64.29;101053.13;5053014;28;20023;-66
2021/09/10 00:58:45;;;;;;;7.97;5.35;;;;;;;22.88;63.93;101057.63;5053566;28;20487;-66
2021/09/10 01:01:10;;;;;;;7.85;5.07;;;;;;;22.88;64.10;101057.63;5053498;28;20033;-66
2021/09/10 01:03:36;;;;;;;8.05;5.13;;;;;;;22.88;64.00;101060.28;5053072;28;20483;-65
2021/09/10 01:06:04;;;;;;;7.05;5.03;;;;;;;22.87;64.32;101058.59;5053430;28;20051;-67
2021/09/10 01:08:31;;;;;;;8.75;4.80;;;;;;;22.88;64.05;101056.78;5052981;28;20036;-66
2021/09/10 01:11:00;;;;;;;7.40;4.82;;;;;;;22.88;64.05;101064.75;5052243;28;20041;-66
2021/09/10 01:13:26;;;;;;;9.07;5.35;;;;;;;22.88;64.11;101051.47;5053433;28;20028;-66
2021/09/10 01:15:52;;;;;;;6.50;4.72;;;;;;;22.88;63.72;101056.78;5052858;28;20013;-66
2021/09/10 01:18:17;;;;;;;6.78;4.97;;;;;;;22.87;64.03;101055.09;5052684;28;20036;-65
2021/09/10 01:20:46;;;;;;;6.40;4.80;;;;;;;22.85;64.26;101049.13;5053239;28;20407;-66
2021/09/10 01:23:11;;;;;;;6.35;4.72;;;;;;;22.86;64.06;101048.97;5052868;28;20024;-66
2021/09/10 01:25:36;;;;;;;6.73;4.77;;;;;;;22.86;64.14;101041.00;5052313;28;20132;-66
2021/09/10 01:28:05;;;;;;;6.23;4.73;;;;;;;22.85;63.74;101041.16;5052816;28;20702;-66
2021/09/10 01:30:32;;;;;;;6.60;4.75;;;;;;;22.86;64.13;101042.78;5053102;28;20402;-65
2021/09/10 01:33:01;;;;;;;6.75;4.90;;;;;;;22.83;63.95;101044.78;5052180;28;20021;-65
2021/09/10 01:35:27;;;;;;;6.40;4.70;;;;;;;22.85;63.96;101039.31;5052954;28;20020;-66
2021/09/10 01:37:56;;;;;;;6.57;5.05;;;;;;;22.84;64.14;101037.63;5052722;28;20036;-66
2021/09/10 01:40:25;;;;;;;6.40;4.93;;;;;;;22.83;63.66;101039.47;5052026;28;20491;-66
2021/09/10 01:42:51;;;;;;;7.15;4.97;;;;;;;22.83;63.55;101036.81;5052279;28;20029;-66
2021/09/10 01:45:16;;;;;;;6.13;4.47;;;;;;;22.83;63.73;101049.25;5052207;28;20036;-65
2021/09/10 01:47:45;;;;;;;6.28;4.53;;;;;;;22.82;64.11;101043.09;5052621;28;20135;-65
2021/09/10 01:50:13;;;;;;;7.70;4.63;;;;;;;22.80;63.84;101039.75;5052220;28;20104;-67
2021/09/10 01:52:39;;;;;;;5.95;4.38;;;;;;;22.82;64.10;101043.09;5051954;28;20021;-67
2021/09/10 01:55:06;;;;;;;6.28;4.43;;;;;;;22.80;63.70;101034.44;5052271;28;20107;-66
2021/09/10 01:57:32;;;;;;;6.82;4.53;;;;;;;22.81;63.62;101044.09;5052786;28;20100;-66
2021/09/10 01:59:57;;;;;;;5.82;4.40;;;;;;;22.78;63.89;101033.78;5051659;28;20208;-66
2021/09/10 02:02:22;;;;;;;6.97;4.90;;;;;;;22.80;63.97;101039.75;5052535;28;20013;-66
2021/09/10 02:04:50;;;;;;;5.80;4.28;;;;;;;22.81;63.67;101041.44;5052148;28;20282;-64
2021/09/10 02:07:15;;;;;;;5.68;4.28;;;;;;;22.79;63.59;101032.75;5051710;28;20032;-65
2021/09/10 02:09:41;;;;;;;6.30;4.45;;;;;;;22.79;63.57;101037.25;5052282;28;20021;-66
2021/09/10 02:12:06;;;;;;;6.63;4.63;;;;;;;22.79;63.43;101031.94;5052209;28;20611;-65
2021/09/10 02:14:33;;;;;;;6.03;3.80;;;;;;;22.76;63.85;101027.75;5051757;28;20029;-65
2021/09/10 02:16:59;;;;;;;5.97;3.92;;;;;;;22.78;63.45;101039.09;5052033;28;20128;-65
2021/09/10 02:19:24;;;;;;;6.22;4.22;;;;;;;22.78;63.71;101038.22;5052370;28;20040;-65
2021/09/10 02:21:50;;;;;;;6.13;4.00;;;;;;;22.77;63.57;101037.41;5050234;28;20029;-66
2021/09/10 02:24:16;;;;;;;6.20;4.38;;;;;;;22.77;63.64;101037.41;5052044;28;20075;-65
2021/09/10 02:26:41;;;;;;;5.97;4.47;;;;;;;22.77;63.65;101042.72;5052308;28;20114;-66
2021/09/10 02:29:07;;;;;;;5.60;3.97;;;;;;;22.76;63.38;101037.56;5051445;28;20048;-66
2021/09/10 02:31:32;;;;;;;5.00;3.83;;;;;;;22.76;63.58;101046.34;5052113;28;20456;-66
2021/09/10 02:33:57;;;;;;;5.60;3.97;;;;;;;22.76;63.55;101042.88;5051850;28;20066;-66
2021/09/10 02:36:22;;;;;;;6.50;3.97;;;;;;;22.76;63.41;101041.03;5051348;28;20078;-65
2021/09/10 02:38:48;;;;;;;5.47;4.15;;;;;;;22.74;63.80;101037.69;5051544;28;20037;-65
2021/09/10 02:41:13;;;;;;;5.20;3.75;;;;;;;22.75;63.70;101041.22;5052226;28;20029;-66
2021/09/10 02:43:39;;;;;;;5.30;3.78;;;;;;;22.68;63.25;101035.66;5051385;28;20082;-65
2021/09/10 02:46:04;;;;;;;5.68;4.00;;;;;;;22.75;63.61;101039.38;5051604;28;20045;-66
2021/09/10 02:48:29;;;;;;;5.57;4.00;;;;;;;22.74;63.53;101039.53;5051467;28;20036;-66
2021/09/10 02:50:55;;;;;;;5.70;3.88;;;;;;;22.75;63.34;101038.56;5051474;28;20370;-66
2021/09/10 02:53:20;;;;;;;5.57;3.85;;;;;;;22.74;63.28;101048.34;5051054;28;20071;-65
2021/09/10 02:55:45;;;;;;;5.85;3.70;;;;;;;22.74;63.32;101048.34;5051001;28;20423;-66
2021/09/10 02:58:11;;;;;;;4.80;3.35;;;;;;;22.74;63.46;101045.69;5051409;28;20078;-65
2021/09/10 03:00:36;;;;;;;5.22;3.75;;;;;;;22.74;63.33;101043.03;5051757;28;20025;-65
2021/09/10 03:03:01;;;;;;;5.85;4.03;;;;;;;22.73;63.49;101033.41;5050792;28;20025;-65
2021/09/10 03:05:28;;;;;;;7.03;3.60;;;;;;;22.74;63.56;101042.19;5051628;28;20049;-66
2021/09/10 03:07:54;;;;;;;6.03;3.97;;;;;;;22.73;63.56;101033.41;5051264;28;20393;-66
2021/09/10 03:10:19;;;;;;;5.85;3.72;;;;;;;22.73;63.61;101043.16;5050967;28;20029;-66
2021/09/10 03:12:44;;;;;;;5.32;3.65;;;;;;;22.72;63.11;101042.34;5051566;28;20086;-66
2021/09/10 03:15:12;;;;;;;5.25;3.75;;;;;;;22.73;63.21;101045.81;5051368;28;20020;-67
2021/09/10 03:17:37;;;;;;;5.30;3.63;;;;;;;22.72;63.58;101047.66;5050930;28;20112;-65
2021/09/10 03:20:04;;;;;;;5.40;3.55;;;;;;;22.72;63.58;101042.34;5051324;28;20148;-65
2021/09/10 03:22:32;;;;;;;6.22;4.10;;;;;;;22.72;63.08;101038.88;5051308;28;20365;-65
2021/09/10 03:24:57;;;;;;;6.18;3.78;;;;;;;22.72;63.16;101042.34;5050433;28;20372;-65
2021/09/10 03:27:22;;;;;;;5.05;3.35;;;;;;;22.70;63.16;101044.31;5051539;28;20047;-66
2021/09/10 03:29:48;;;;;;;6.13;3.50;;;;;;;22.71;63.11;101040.66;5051143;28;20025;-66
2021/09/10 03:32:13;;;;;;;6.68;3.70;;;;;;;22.69;63.14;101037.31;5051807;28;20277;-66
2021/09/10 03:34:38;;;;;;;6.27;3.70;;;;;;;22.70;63.03;101041.66;5055222;28;20036;-66
2021/09/10 03:37:04;;;;;;;7.38;3.70;;;;;;;22.69;62.91;101042.63;5054829;28;20676;-65
2021/09/10 03:39:30;;;;;;;4.80;3.35;;;;;;;22.68;63.39;101035.66;5054309;28;20032;-66
2021/09/10 03:41:55;;;;;;;5.15;3.50;;;;;;;22.69;63.44;101028.53;5054664;28;20028;-65
2021/09/10 03:44:21;;;;;;;6.05;3.78;;;;;;;22.69;63.20;101034.66;5055252;28;20057;-65
2021/09/10 03:46:46;;;;;;;5.40;3.70;;;;;;;22.69;63.45;101042.63;5054167;28;20040;-65
2021/09/10 03:49:11;;;;;;;5.28;3.65;;;;;;;22.64;63.03;101027.16;5054547;28;20508;-65
2021/09/10 03:51:36;;;;;;;5.00;3.27;;;;;;;22.70;62.99;101043.47;5054738;28;20033;-65
2021/09/10 03:54:05;;;;;;;5.50;3.60;;;;;;;22.69;63.26;101039.97;5053719;28;20028;-65
2021/09/10 03:56:30;;;;;;;5.45;3.30;;;;;;;22.68;62.94;101035.66;5054986;28;20123;-66
2021/09/10 03:59:04;;;;;;;5.93;3.53;;;;;;;22.68;62.97;101035.66;5053721;28;20021;-65
2021/09/10 04:01:32;;;;;;;5.78;3.55;;;;;;;22.67;63.04;101039.31;5054607;28;20266;-65
2021/09/10 04:03:57;;;;;;;5.80;3.40;;;;;;;22.68;62.93;101035.66;5054344;28;20021;-66
2021/09/10 04:06:23;;;;;;;6.07;3.65;;;;;;;22.67;63.08;101039.31;5053756;28;20021;-66
2021/09/10 04:08:48;;;;;;;5.13;3.33;;;;;;;22.67;63.25;101043.75;5054430;28;20021;-66
2021/09/10 04:11:14;;;;;;;6.05;3.13;;;;;;;22.67;63.09;101039.31;5054466;28;20981;-65
2021/09/10 04:13:39;;;;;;;4.75;3.03;;;;;;;22.67;63.22;101043.75;5053798;28;20017;-65
2021/09/10 04:16:05;;;;;;;5.72;3.80;;;;;;;22.66;63.21;101042.94;5053875;28;20025;-66
2021/09/10 04:18:30;;;;;;;6.20;3.40;;;;;;;22.64;63.04;101042.25;5054444;28;20033;-66
2021/09/10 04:20:55;;;;;;;4.90;3.37;;;;;;;22.66;63.15;101037.63;5053347;28;20769;-66
2021/09/10 04:23:20;;;;;;;4.70;3.10;;;;;;;22.66;62.95;101037.63;5054460;28;20349;-65
2021/09/10 04:25:55;;;;;;;4.80;3.10;;;;;;;22.67;63.08;101043.75;5054361;28;20289;-66
2021/09/10 04:28:23;;;;;;;5.32;3.58;;;;;;;22.66;62.89;101042.13;5053478;28;20265;-66
2021/09/10 04:30:48;;;;;;;4.80;2.97;;;;;;;22.63;62.98;101035.28;5053675;28;20472;-66
2021/09/10 04:33:16;;;;;;;5.00;3.40;;;;;;;22.65;63.17;101041.25;5054199;28;20033;-65
2021/09/10 04:35:41;;;;;;;5.20;3.20;;;;;;;22.66;63.22;101052.75;5053218;28;20024;-66
2021/09/10 04:38:06;;;;;;;5.20;3.38;;;;;;;22.64;63.04;101039.59;5053698;28;20033;-65
2021/09/10 04:40:32;;;;;;;5.03;3.47;;;;;;;22.66;62.81;101042.13;5053577;28;20484;-64
2021/09/10 04:42:57;;;;;;;4.55;3.03;;;;;;;22.63;63.11;101043.22;5052283;28;20415;-65
2021/09/10 04:45:23;;;;;;;5.13;3.50;;;;;;;22.64;62.94;101043.09;5053313;28;20048;-66
2021/09/10 04:47:49;;;;;;;4.38;3.00;;;;;;;22.64;62.81;101045.75;5053364;28;20098;-65
2021/09/10 04:50:15;;;;;;;5.60;3.28;;;;;;;22.63;62.76;101045.91;5053077;28;20021;-66
2021/09/10 04:52:40;;;;;;;5.90;3.15;;;;;;;22.63;62.80;101049.38;5053379;28;20472;-64
2021/09/10 04:55:11;;;;;;;4.63;3.08;;;;;;;22.64;62.92;101044.91;5052334;28;20017;-64
2021/09/10 04:57:40;;;;;;;5.03;3.40;;;;;;;22.62;62.75;101047.72;5053209;28;20031;-66
2021/09/10 05:00:06;;;;;;;5.72;3.28;;;;;;;22.63;62.89;101049.38;5053285;28;20114;-65
2021/09/10 05:02:34;;;;;;;5.13;3.47;;;;;;;22.60;63.04;101047.00;5052597;28;20028;-65
2021/09/10 05:04:59;;;;;;;4.88;3.53;;;;;;;22.63;62.70;101048.56;5053220;28;20021;-63
2021/09/10 05:07:25;;;;;;;4.90;3.15;;;;;;;22.62;62.93;101050.38;5053444;28;20025;-64
2021/09/10 05:09:50;;;;;;;4.50;2.95;;;;;;;22.61;62.76;101051.34;5052155;28;20191;-65
2021/09/10 05:12:15;;;;;;;5.28;3.13;;;;;;;22.60;63.05;101054.16;5053358;28;20459;-64
2021/09/10 05:14:41;;;;;;;5.72;3.58;;;;;;;22.62;62.98;101046.88;5053346;28;20025;-64
2021/09/10 05:17:07;;;;;;;4.88;3.08;;;;;;;22.63;62.94;101048.56;5051987;28;20040;-64
2021/09/10 05:19:33;;;;;;;5.65;3.25;;;;;;;22.63;62.90;101048.56;5053060;28;20033;-64
2021/09/10 05:21:58;;;;;;;5.07;3.17;;;;;;;22.61;63.04;101046.03;5052978;28;20074;-64
2021/09/10 05:24:23;;;;;;;5.07;3.20;;;;;;;22.61;62.91;101045.22;5052221;28;20112;-64
2021/09/10 05:26:49;;;;;;;4.90;3.20;;;;;;;22.61;62.97;101042.56;5052522;28;20035;-64
2021/09/10 05:29:17;;;;;;;5.40;3.17;;;;;;;22.63;62.84;101053.88;5052779;28;20539;-64
2021/09/10 05:31:45;;;;;;;4.55;2.80;;;;;;;22.63;63.00;101057.34;5051854;28;20315;-64
2021/09/10 05:34:11;;;;;;;4.60;3.03;;;;;;;22.62;62.78;101052.19;5052649;28;20035;-64
2021/09/10 05:36:38;;;;;;;5.43;3.15;;;;;;;22.62;62.95;101052.19;5052982;28;20079;-64
2021/09/10 05:39:06;;;;;;;5.47;3.05;;;;;;;22.61;63.19;101053.19;5051772;28;20212;-64
2021/09/10 05:41:31;;;;;;;5.30;2.97;;;;;;;22.61;62.93;101055.84;5052667;28;20100;-65
2021/09/10 05:43:59;;;;;;;5.25;3.30;;;;;;;22.61;62.99;101061.16;5052317;28;20476;-65
2021/09/10 05:46:25;;;;;;;4.97;3.08;;;;;;;22.60;62.90;101062.94;5051419;28;20139;-65
2021/09/10 05:48:50;;;;;;;4.97;3.03;;;;;;;22.61;63.06;101069.13;5052353;28;20442;-64
2021/09/10 05:51:15;;;;;;;4.70;3.03;;;;;;;22.59;62.71;101068.44;5052201;28;20506;-65
2021/09/10 05:53:41;;;;;;;5.07;3.17;;;;;;;22.61;63.20;101075.25;5052061;28;20267;-65
2021/09/10 05:56:06;;;;;;;4.15;2.72;;;;;;;22.61;62.98;101075.25;5051956;28;20025;-66
2021/09/10 05:58:34;;;;;;;4.70;2.90;;;;;;;22.61;62.93;101072.59;5051598;28;20017;-64
2021/09/10 06:01:02;;;;;;;6.10;3.13;;;;;;;22.61;62.86;101080.56;5051706;28;20258;-63
2021/09/10 06:03:29;;;;;;;4.82;2.80;;;;;;;22.60;62.84;101083.38;5052217;28;20033;-64
2021/09/10 06:05:58;;;;;;;4.82;2.92;;;;;;;22.59;63.21;101082.56;5051048;28;20333;-64
2021/09/10 06:08:23;;;;;;;5.18;3.22;;;;;;;22.60;63.26;101080.72;5052182;28;20107;-65
2021/09/10 06:10:49;;;;;;;4.95;2.80;;;;;;;22.60;63.67;101086.84;5051812;28;20112;-66
2021/09/10 06:13:14;;;;;;;4.90;2.88;;;;;;;22.62;63.50;101092.03;5051279;28;20052;-67
2021/09/10 06:15:39;;;;;;;6.68;2.88;;;;;;;22.63;63.82;101089.22;5052179;28;20028;-64
2021/09/10 06:18:05;;;;;;;5.45;2.90;;;;;;;22.65;63.67;101091.72;5051970;28;20032;-65
2021/09/10 06:20:33;;;;;;;6.28;3.10;;;;;;;22.64;63.91;101090.91;5051396;28;20032;-64
2021/09/10 06:22:59;;;;;;;5.65;3.13;;;;;;;22.66;63.53;101090.75;5051840;28;20063;-64
2021/09/10 06:25:24;;;;;;;7.18;3.00;;;;;;;22.67;63.43;101103.06;5052041;28;20036;-64
2021/09/10 06:27:50;;;;;;;6.47;3.10;;;;;;;22.67;64.00;101107.53;5050910;28;20028;-63
2021/09/10 06:30:16;;;;;;;4.47;2.80;;;;;;;22.66;63.86;101106.69;5051895;28;20124;-64
2021/09/10 06:32:41;;;;;;;5.22;2.67;;;;;;;22.68;63.72;101112.69;5052177;28;20032;-63
2021/09/10 06:35:09;;;;;;;4.72;2.60;;;;;;;22.69;63.98;101121.50;5050997;28;20283;-64
2021/09/10 06:37:35;;;;;;;5.55;3.13;;;;;;;22.68;64.12;101120.66;5051974;28;20484;-65
2021/09/10 06:40:01;;;;;;;5.78;2.78;;;;;;;22.69;63.78;101121.50;5051684;28;20108;-66
2021/09/10 06:42:26;;;;;;;4.78;2.95;;;;;;;22.69;63.92;101122.34;5051211;28;20017;-64
2021/09/10 06:44:54;;;;;;;5.53;3.10;;;;;;;22.69;64.06;101125.00;5052328;28;20052;-63
2021/09/10 06:47:19;;;;;;;6.05;2.58;;;;;;;22.69;63.64;101129.47;5051707;28;20119;-64
2021/09/10 06:49:48;;;;;;;5.00;2.90;;;;;;;22.68;63.79;101131.28;5051264;28;20100;-63
2021/09/10 06:52:14;;;;;;;7.50;2.85;;;;;;;22.71;63.77;101136.31;5051798;28;20281;-63
2021/09/10 06:54:39;;;;;;;4.65;2.67;;;;;;;22.70;64.01;101134.66;5051103;28;20025;-65
2021/09/10 06:57:04;;;;;;;6.25;3.08;;;;;;;22.73;64.42;101134.34;5052029;28;20417;-63
2021/09/10 06:59:30;;;;;;;4.18;2.67;;;;;;;22.76;64.15;101134.03;5053191;28;20484;-67
2021/09/10 07:01:55;;;;;;;5.82;2.70;;;;;;;22.78;64.03;101133.88;5050743;28;20029;-63
2021/09/10 07:04:20;;;;;;;5.30;2.97;;;;;;;22.79;64.03;101136.38;5051722;28;20040;-65
2021/09/10 07:06:54;;;;;;;6.40;3.53;;;;;;;22.82;64.36;101135.28;5054118;28;20288;-64
2021/09/10 07:09:20;;;;;;;5.35;2.97;;;;;;;22.83;64.28;101139.59;5056128;28;20021;-64
2021/09/10 07:11:45;;;;;;;6.00;2.90;;;;;;;22.84;64.39;101141.25;5056317;28;20040;-66
2021/09/10 07:14:16;;;;;;;5.72;2.50;;;;;;;22.85;63.94;101144.78;5056018;28;20280;-65
2021/09/10 07:16:42;;;;;;;6.90;3.33;;;;;;;22.87;64.14;101142.78;5055504;28;20036;-66
2021/09/10 07:19:07;;;;;;;6.88;2.67;;;;;;;22.86;64.20;101149.09;5056437;28;20036;-67
2021/09/10 07:21:33;;;;;;;5.23;2.53;;;;;;;22.86;63.80;101159.72;5055826;28;20045;-64
2021/09/10 07:23:58;;;;;;;6.33;2.97;;;;;;;22.86;64.33;101154.41;5055763;28;20278;-67
2021/09/10 07:26:25;;;;;;;4.60;2.67;;;;;;;22.85;63.81;101158.88;5055659;28;20282;-67
2021/09/10 07:28:50;;;;;;;4.65;2.85;;;;;;;22.85;64.02;101168.69;5055525;28;20108;-65
2021/09/10 07:31:15;;;;;;;6.45;3.03;;;;;;;22.83;63.86;101169.66;5054610;28;20112;-65
2021/09/10 07:33:43;;;;;;;8.38;2.78;;;;;;;22.82;64.16;101165.31;5055415;28;20082;-64
2021/09/10 07:36:09;;;;;;;6.53;2.75;;;;;;;22.85;64.07;101166.03;5054991;28;20029;-66
2021/09/10 07:38:35;;;;;;;5.60;2.53;;;;;;;22.85;63.71;101164.19;5055016;28;20431;-63
2021/09/10 07:41:01;;;;;;;5.00;2.60;;;;;;;22.87;63.97;101174.69;5055435;28;20084;-64
2021/09/10 07:43:27;;;;;;;3.63;2.30;;;;;;;22.87;64.05;101172.03;5055700;28;20059;-64
2021/09/10 07:45:52;;;;;;;4.70;3.03;;;;;;;22.87;64.00;101174.69;5054143;28;20102;-64
2021/09/10 07:48:17;;;;;;;5.38;2.60;;;;;;;22.88;63.88;101173.72;5055528;28;20266;-64
2021/09/10 07:50:42;;;;;;;6.03;2.90;;;;;;;22.86;63.94;101175.66;5055139;28;20025;-64
2021/09/10 07:53:08;;;;;;;6.67;2.73;;;;;;;22.83;64.34;101174.16;5054279;28;20492;-66
2021/09/10 07:55:42;;;;;;;6.05;2.60;;;;;;;22.88;64.16;101182.50;5054859;28;20262;-66
2021/09/10 07:58:10;;;;;;;4.75;2.90;;;;;;;22.89;63.98;101188.66;5054037;28;20032;-65
2021/09/10 08:00:35;;;;;;;5.30;2.80;;;;;;;22.87;64.19;101190.63;5055179;28;20036;-65
2021/09/10 08:03:07;;;;;;;5.60;2.80;;;;;;;22.89;64.11;101191.31;5055109;28;20017;-66
2021/09/10 08:05:32;;;;;;;5.35;2.55;;;;;;;22.90;63.96;101185.03;5054791;28;20025;-65
2021/09/10 08:07:57;;;;;;;4.50;2.50;;;;;;;22.89;63.79;101192.16;5053189;28;20388;-62
2021/09/10 08:10:23;;;;;;;5.00;2.90;;;;;;;22.88;64.14;101197.63;5054407;28;20381;-63
2021/09/10 08:12:48;;;;;;;4.70;2.40;;;;;;;22.88;63.79;101195.78;5053773;28;20027;-66
2021/09/10 08:15:16;;;;;;;6.32;2.60;;;;;;;22.89;64.11;101192.16;5054576;28;20472;-66
2021/09/10 08:17:41;;;;;;;5.43;2.70;;;;;;;22.89;63.88;101192.16;5054482;28;20108;-67
2021/09/10 08:20:13;;;;;;;4.68;2.53;;;;;;;22.91;63.68;101190.19;5053904;28;20144;-68
2021/09/10 08:22:40;;;;;;;6.70;2.60;;;;;;;22.91;63.81;101184.03;5054790;28;20035;-69
2021/09/10 08:25:09;;;;;;;5.13;2.45;;;;;;;22.92;63.95;101183.91;5054059;28;20025;-68
2021/09/10 08:27:36;;;;;;;5.97;2.60;;;;;;;22.93;63.82;101176.75;5054256;28;20040;-69
2021/09/10 08:30:04;;;;;;;5.13;2.70;;;;;;;22.95;63.73;101180.09;5054475;28;20021;-67
2021/09/10 08:32:29;;;;;;;8.48;2.40;;;;;;;22.94;63.50;101176.59;5054175;28;20025;-68
2021/09/10 08:34:55;;;;;;;6.57;2.88;;;;;;;22.97;63.69;101188.75;5053562;28;20028;-65
2021/09/10 08:37:20;;;;;;;5.70;3.08;;;;;;;22.96;63.63;101189.75;5054144;28;20071;-69
2021/09/10 08:39:45;;;;;;;9.20;3.10;;;;;;;22.95;63.83;101188.06;5054559;28;20025;-65
2021/09/10 08:42:11;;;;;;;5.93;2.88;;;;;;;22.95;63.80;101196.03;5052968;28;20040;-65
2021/09/10 08:44:41;;;;;;;6.07;2.75;;;;;;;22.96;64.12;101195.06;5053978;28;20177;-66
2021/09/10 08:47:13;;;;;;;7.10;3.08;;;;;;;22.97;64.38;101194.06;5052909;28;20045;-64
2021/09/10 08:49:39;;;;;;;8.05;2.65;;;;;;;22.98;64.35;101206.38;5053655;28;20101;-63
2021/09/10 08:52:07;;;;;;;7.82;2.70;;;;;;;22.98;64.15;101203.72;5053657;28;20085;-63
2021/09/10 08:54:32;;;;;;;7.32;2.50;;;;;;;22.99;63.86;101202.75;5053183;28;20032;-67
2021/09/10 08:56:58;;;;;;;4.70;2.97;;;;;;;22.98;64.11;101206.38;5053481;28;20017;-65
2021/09/10 08:59:23;;;;;;;7.28;3.20;;;;;;;22.95;64.30;101211.97;5053753;28;20021;-65
2021/09/10 09:01:53;;;;;;;7.18;3.20;;;;;;;22.96;64.18;101206.50;5052349;28;20076;-65
2021/09/10 09:04:19;;;;;;;6.70;3.30;;;;;;;22.96;64.07;101208.34;5053590;28;20477;-63
2021/09/10 09:06:52;;;;;;;5.13;2.83;;;;;;;22.96;64.43;101211.84;5053903;28;20028;-65
2021/09/10 09:09:47;;;;;;;6.43;3.00;;;;;;;22.97;64.01;101210.84;5052924;28;20102;-61
2021/09/10 09:12:19;;;;;;;7.18;2.97;;;;;;;22.97;64.19;101210.84;5053205;28;20468;-62
2021/09/10 09:15:02;;;;;;;7.10;2.92;;;;;;;22.95;64.59;101196.03;5053245;28;20033;-62
2021/09/10 09:17:31;;;;;;;6.35;2.92;;;;;;;22.98;64.16;101206.38;5052378;28;20472;-62
2021/09/10 09:20:25;;;;;;;6.38;2.97;;;;;;;22.99;64.68;101208.88;5053075;28;20124;-63
2021/09/10 09:23:06;;;;;;;5.55;3.10;;;;;;;23.00;64.40;101217.69;5052042;28;20048;-64
2021/09/10 09:25:40;;;;;;;5.85;3.03;;;;;;;22.98;64.35;101212.50;5053170;28;20025;-63
2021/09/10 09:28:18;;;;;;;;;;;;;;;22.98;64.32;101214.34;5053244;28;20091;-63
2021/09/10 09:30:44;;;;;;;8.20;3.05;;;;;;;22.98;64.21;101214.34;5052012;28;19913;-63
2021/09/10 09:33:17;;;;;;;6.80;3.20;;;;;;;22.98;64.46;101228.47;5052921;28;20025;-63
2021/09/10 09:35:43;;;;;;;7.55;3.35;;;;;;;22.97;64.57;101225.94;5053205;28;20025;-64
2021/09/10 09:38:13;;;;;;;6.90;3.40;;;;;;;23.00;64.67;101226.50;5052072;28;20024;-64
2021/09/10 09:40:39;;;;;;;6.47;2.92;;;;;;;23.01;64.85;101222.84;5053026;28;20464;-61
2021/09/10 09:43:32;;;;;;;6.60;2.85;;;;;;;23.00;64.93;101229.16;5052922;28;20099;-61
2021/09/10 09:45:58;;;;;;;5.25;2.90;;;;;;;22.99;65.07;101224.81;5052375;28;20041;-61
2021/09/10 09:48:32;;;;;;;6.10;3.17;;;;;;;23.00;64.97;101228.31;5053234;28;20036;-62
2021/09/10 09:50:58;;;;;;;8.75;3.15;;;;;;;23.00;65.17;101228.31;5052002;28;20032;-68
2021/09/10 09:53:24;;;;;;;5.45;2.80;;;;;;;23.00;64.87;101223.00;5052989;28;20025;-65
2021/09/10 09:55:49;;;;;;;6.00;3.13;;;;;;;23.00;65.29;101225.66;5052583;28;20021;-66
2021/09/10 09:58:16;;;;;;;6.60;3.00;;;;;;;23.04;65.55;101231.53;5051946;28;20361;-63
2021/09/10 10:00:44;;;;;;;7.68;3.33;;;;;;;23.03;65.54;101222.69;5053134;28;20028;-65
2021/09/10 10:03:10;;;;;;;7.07;2.80;;;;;;;23.03;65.22;101221.88;5052978;28;20075;-68
2021/09/10 10:05:54;;;;;;;5.45;2.88;;;;;;;23.06;65.36;101224.25;5052074;28;20123;-63
2021/09/10 10:08:29;;;;;;;8.18;3.15;;;;;;;23.07;65.46;101220.59;5052696;28;20047;-64
2021/09/10 10:11:04;;;;;;;5.20;3.20;;;;;;;23.05;65.26;101228.72;5051892;28;20033;-63
2021/09/10 10:13:31;;;;;;;7.82;3.30;;;;;;;23.03;65.14;101228.03;5051506;28;20490;-62
2021/09/10 10:15:57;;;;;;;6.80;3.10;;;;;;;23.03;65.12;101228.03;5052184;28;20067;-65
2021/09/10 10:18:43;;;;;;;5.28;2.85;;;;;;;23.05;65.03;101228.72;5052462;28;20029;-65
2021/09/10 10:21:14;;;;;;;6.07;3.00;;;;;;;23.04;65.29;101228.88;5052019;28;20358;-63
2021/09/10 10:23:42;;;;;;;6.18;3.00;;;;;;;23.04;65.39;101223.56;5052234;28;20103;-64
2021/09/10 10:26:20;;;;;;;6.28;2.90;;;;;;;23.03;65.27;101219.22;5051322;28;20041;-64
2021/09/10 10:28:50;;;;;;;5.07;2.70;;;;;;;23.04;65.11;101224.38;5052297;28;20028;-64
2021/09/10 10:31:38;;;;;;;6.72;2.90;;;;;;;23.05;65.25;101222.56;5052101;28;20049;-62
2021/09/10 10:34:05;;;;;;;5.05;2.67;;;;;;;23.05;65.09;101218.09;5050843;28;20033;-63
2021/09/10 10:36:37;;;;;;;6.80;3.33;;;;;;;23.05;65.40;101218.09;5052143;28;20029;-63
2021/09/10 10:39:08;;;;;;;7.65;3.33;;;;;;;23.06;65.22;101219.75;5051587;28;20465;-63
2021/09/10 10:41:49;;;;;;;6.90;3.22;;;;;;;23.07;65.10;101215.28;5051489;28;20028;-65
2021/09/10 10:44:32;;;;;;;6.15;2.70;;;;;;;23.05;65.30;101210.13;5056073;28;20029;-64
2021/09/10 10:47:18;;;;;;;4.78;3.10;;;;;;;23.05;65.23;101204.81;5054956;28;20127;-63
2021/09/10 10:49:48;;;;;;;6.20;2.88;;;;;;;23.06;65.25;101200.31;5056140;28;20021;-65
2021/09/10 10:52:33;;;;;;;5.63;3.13;;;;;;;23.04;65.21;101202.28;5056119;28;20052;-63
2021/09/10 10:55:16;;;;;;;6.90;3.10;;;;;;;23.02;65.31;101197.13;5055014;28;20032;-64
2021/09/10 10:57:42;;;;;;;5.78;2.83;;;;;;;23.01;65.70;101201.59;5056235;28;20025;-65
2021/09/10 11:00:26;;;;;;;8.10;3.08;;;;;;;23.01;65.63;101208.72;5056093;28;20032;-66
2021/09/10 11:03:14;;;;;;;7.60;2.88;;;;;;;23.04;65.54;101202.28;5055478;28;20040;-63
2021/09/10 11:05:47;;;;;;;5.15;2.85;;;;;;;23.05;65.84;101191.53;5056180;28;20392;-66
2021/09/10 11:08:37;;;;;;;5.33;3.10;;;;;;;23.07;65.48;101189.53;5055144;28;20037;-66
2021/09/10 11:11:05;;;;;;;8.00;2.95;;;;;;;23.09;65.71;101202.72;5055084;28;20065;-67
2021/09/10 11:13:31;;;;;;;8.40;2.95;;;;;;;23.10;65.42;101199.06;5056279;28;20028;-67
2021/09/10 11:15:56;;;;;;;6.18;2.97;;;;;;;23.10;65.75;101215.84;5055346;28;20055;-67
2021/09/10 11:18:25;;;;;;;5.22;2.70;;;;;;;23.12;65.38;101213.06;5057294;28;20020;-67
2021/09/10 11:20:53;;;;;;;7.00;2.97;;;;;;;23.12;65.73;101221.84;5056067;28;20032;-67
2021/09/10 11:23:40;;;;;;;5.40;2.88;;;;;;;23.13;65.23;101225.34;5055186;28;20028;-67
2021/09/10 11:26:07;;;;;;;5.90;2.33;;;;;;;23.12;65.40;101218.38;5054834;28;20384;-67